Terminal Aerodrome Forecast
Issued by NWS Cleveland, OH

Home | Current Version | Previous Version | Text Only | Print | Product List | Glossary On
Versions: 1 2 3 4 5 6 7 8 9 10 11 12 13 14 15 16
000
FTUS41 KCLE 270500 RRA
TAFERI
TAF
KERI 270541Z 2706/2806 31004KT P6SM BKN040
     FM271000 31004KT P6SM BKN030 OVC050
     FM271200 31006KT P6SM -SHRA SCT015 OVC025
      TEMPO 2712/2716 5SM -RA BR OVC015
     FM271800 31010KT P6SM SCT025 OVC035
     FM272200 31006KT P6SM BKN035 OVC050=

USA.gov is the U.S. government's official web portal to all federal, state and local government web resources and services.